Time;durP1;ratioP1;P1;durP2;ratioP2;P2;SDS_P1;SDS_P2;PMS_P1;PMS_P2;Temp;Humidity;BMP_temperature;BMP_pressure;BME280_temperature;BME280_humidity;BME280_pressure;Samples;Min_cycle;Max_cycle;Signal;HPM_P1;HPM_P2
2020/12/20 00:01:02;;;;;;;8.73;6.53;;;0.50;96.40;;;;;;4988371;28;20553;-83
2020/12/20 00:03:30;;;;;;;9.23;7.37;;;0.50;96.40;;;;;;4981488;28;20694;-82
2020/12/20 00:05:56;;;;;;;17.73;8.23;;;0.60;96.10;;;;;;4982255;28;20200;-86
2020/12/20 00:08:23;;;;;;;9.70;7.30;;;0.60;96.30;;;;;;4984119;28;20710;-84
2020/12/20 00:10:49;;;;;;;9.27;7.43;;;0.60;96.00;;;;;;4987180;28;20770;-82
2020/12/20 00:13:17;;;;;;;9.23;6.90;;;0.50;95.80;;;;;;4985511;28;20304;-81
2020/12/20 00:15:44;;;;;;;7.93;6.67;;;0.50;95.90;;;;;;4992393;28;20663;-80
2020/12/20 00:18:10;;;;;;;10.63;7.57;;;0.70;96.10;;;;;;4986980;28;20226;-82
2020/12/20 00:20:37;;;;;;;12.30;7.77;;;0.60;96.00;;;;;;4985208;28;20657;-83
2020/12/20 00:23:03;;;;;;;10.37;7.60;;;0.60;96.00;;;;;;4988000;28;20228;-82
2020/12/20 00:25:30;;;;;;;8.40;7.13;;;0.70;95.90;;;;;;4983195;28;20726;-83
2020/12/20 00:27:56;;;;;;;11.97;8.10;;;0.70;95.80;;;;;;4988730;28;20320;-84
2020/12/20 00:30:22;;;;;;;9.10;7.30;;;0.70;95.60;;;;;;4985556;28;20643;-82
2020/12/20 00:32:50;;;;;;;11.00;8.30;;;0.70;95.70;;;;;;4986139;28;20264;-81
2020/12/20 00:35:17;;;;;;;10.90;8.00;;;0.70;95.90;;;;;;4986393;28;20213;-84
2020/12/20 00:37:44;;;;;;;10.00;7.50;;;0.70;95.60;;;;;;4989504;28;20199;-82
2020/12/20 00:40:11;;;;;;;10.33;7.80;;;0.70;95.70;;;;;;4988956;28;20725;-83
2020/12/20 00:42:37;;;;;;;10.17;7.63;;;0.80;95.60;;;;;;4988536;28;20280;-82
2020/12/20 00:45:06;;;;;;;8.80;7.13;;;0.80;95.40;;;;;;4988604;28;20272;-82
2020/12/20 00:47:32;;;;;;;10.03;7.60;;;0.80;95.20;;;;;;4986702;28;20234;-84
2020/12/20 00:49:59;;;;;;;9.70;7.30;;;0.90;95.00;;;;;;4984714;28;20222;-84
2020/12/20 00:52:25;;;;;;;8.90;7.37;;;0.90;95.00;;;;;;4987761;28;20219;-87
2020/12/20 00:54:53;;;;;;;11.17;7.60;;;1.00;95.20;;;;;;4987309;28;20293;-83
2020/12/20 00:57:19;;;;;;;9.60;7.60;;;1.00;94.90;;;;;;4993766;28;20201;-87
2020/12/20 00:59:45;;;;;;;9.33;7.67;;;1.00;94.70;;;;;;4993632;28;20614;-83
2020/12/20 01:02:11;;;;;;;9.63;7.90;;;0.90;94.80;;;;;;4988676;28;20258;-84
2020/12/20 01:04:38;;;;;;;11.50;8.13;;;0.80;95.10;;;;;;4989375;28;20227;-81
2020/12/20 01:07:04;;;;;;;9.37;7.47;;;0.80;95.40;;;;;;4984335;28;20222;-81
2020/12/20 01:09:31;;;;;;;12.57;8.60;;;0.50;95.60;;;;;;4987156;28;20692;-82
2020/12/20 01:12:01;;;;;;;11.80;8.23;;;0.40;96.10;;;;;;4992177;28;20218;-82
2020/12/20 01:14:28;;;;;;;9.87;7.13;;;0.50;95.90;;;;;;4992496;28;20237;-81
2020/12/20 01:16:54;;;;;;;12.27;8.00;;;0.70;95.90;;;;;;4994095;28;20211;-83
2020/12/20 01:19:20;;;;;;;10.03;7.90;;;0.60;95.70;;;;;;4988344;28;20286;-83
2020/12/20 01:21:47;;;;;;;9.83;7.60;;;0.70;95.60;;;;;;4995259;28;20208;-81
2020/12/20 01:24:13;;;;;;;10.70;8.07;;;0.70;95.50;;;;;;4990663;28;20660;-86
2020/12/20 01:26:39;;;;;;;10.20;8.17;;;0.60;95.30;;;;;;4989580;28;20298;-84
2020/12/20 01:29:06;;;;;;;11.73;8.57;;;0.50;95.60;;;;;;4988395;28;20291;-83
2020/12/20 01:31:33;;;;;;;11.00;8.30;;;0.50;96.10;;;;;;4990879;28;20261;-84
2020/12/20 01:34:00;;;;;;;11.90;8.00;;;0.40;96.00;;;;;;4983709;28;20232;-81
2020/12/20 01:36:27;;;;;;;11.27;8.30;;;0.40;96.00;;;;;;4987534;28;20228;-84
2020/12/20 01:38:54;;;;;;;10.97;7.87;;;0.40;96.10;;;;;;4989408;28;20318;-84
2020/12/20 01:41:20;;;;;;;12.83;8.53;;;0.40;96.00;;;;;;4990992;28;20302;-84
2020/12/20 01:43:48;;;;;;;10.67;8.57;;;0.40;96.10;;;;;;4993276;28;20281;-83
2020/12/20 01:46:18;;;;;;;13.80;8.40;;;0.40;96.30;;;;;;4991804;28;20709;-83
2020/12/20 01:48:45;;;;;;;12.37;8.73;;;0.30;96.30;;;;;;4988576;28;20680;-85
2020/12/20 01:51:13;;;;;;;13.73;8.60;;;0.40;96.70;;;;;;4983827;28;20293;-81
2020/12/20 01:53:41;;;;;;;14.93;8.60;;;0.40;96.60;;;;;;4986129;28;20231;-85
2020/12/20 01:56:08;;;;;;;12.47;8.70;;;0.40;96.30;;;;;;4986696;28;20661;-85
2020/12/20 01:58:37;;;;;;;14.93;8.30;;;0.40;96.30;;;;;;4988595;28;20233;-84
2020/12/20 02:01:04;;;;;;;10.93;8.43;;;0.50;96.40;;;;;;4990053;28;20582;-84
2020/12/20 02:03:32;;;;;;;10.80;8.10;;;0.60;96.00;;;;;;4991144;28;20246;-87
2020/12/20 02:05:59;;;;;;;11.47;8.20;;;0.60;95.90;;;;;;4989785;28;20243;-86
2020/12/20 02:08:26;;;;;;;10.63;7.63;;;0.60;95.80;;;;;;4984908;28;20233;-84
2020/12/20 02:11:10;;;;;;;13.10;9.30;;;0.60;95.60;;;;;;4992110;28;20197;-83
2020/12/20 02:13:40;;;;;;;9.87;7.43;;;0.60;95.60;;;;;;4986122;28;20249;-84
2020/12/20 02:16:07;;;;;;;11.10;7.90;;;0.60;95.40;;;;;;4987365;28;21153;-83
2020/12/20 02:18:34;;;;;;;12.30;7.90;;;0.50;95.90;;;;;;4990605;28;20227;-84
2020/12/20 02:21:00;;;;;;;22.50;8.63;;;0.40;96.20;;;;;;4984560;28;20209;-84
2020/12/20 02:23:27;;;;;;;16.83;8.50;;;0.50;95.70;;;;;;4984120;28;20308;-83
2020/12/20 02:25:54;;;;;;;11.93;9.00;;;0.50;95.50;;;;;;4993033;28;20221;-81
2020/12/20 02:28:21;;;;;;;11.93;8.87;;;0.30;96.10;;;;;;4982532;28;20230;-82
2020/12/20 02:30:48;;;;;;;11.50;8.63;;;0.40;96.10;;;;;;4991459;28;20481;-82
2020/12/20 02:33:14;;;;;;;11.13;8.97;;;0.30;96.30;;;;;;4989540;28;20246;-81
2020/12/20 02:35:44;;;;;;;18.80;8.87;;;0.40;96.10;;;;;;4988542;28;20290;-84
2020/12/20 02:38:10;;;;;;;10.93;8.60;;;0.40;96.00;;;;;;4992436;28;20237;-81
2020/12/20 02:40:39;;;;;;;13.33;9.27;;;0.50;95.80;;;;;;4989039;28;20204;-82
2020/12/20 02:43:05;;;;;;;11.47;8.80;;;0.50;95.50;;;;;;4990699;28;20226;-84
2020/12/20 02:45:32;;;;;;;12.07;9.03;;;0.40;95.70;;;;;;4986790;28;20204;-82
2020/12/20 02:47:58;;;;;;;11.73;8.57;;;0.30;95.90;;;;;;4987745;28;20239;-84
2020/12/20 02:50:24;;;;;;;11.23;7.80;;;0.30;96.10;;;;;;4989864;28;20216;-82
2020/12/20 02:52:51;;;;;;;13.70;8.33;;;0.40;96.00;;;;;;4989667;28;20638;-82
2020/12/20 02:55:17;;;;;;;11.10;7.90;;;0.40;95.90;;;;;;4992210;28;20207;-83
2020/12/20 02:57:44;;;;;;;10.90;8.17;;;0.40;95.80;;;;;;4989561;28;20274;-82
2020/12/20 03:00:11;;;;;;;11.07;7.57;;;0.50;95.40;;;;;;4991165;28;20793;-83
2020/12/20 03:02:37;;;;;;;10.13;7.70;;;0.40;95.40;;;;;;4988749;28;20208;-83
2020/12/20 03:05:04;;;;;;;13.33;8.97;;;0.40;95.30;;;;;;4989146;28;20722;-87
2020/12/20 03:07:30;;;;;;;10.40;8.20;;;0.50;95.60;;;;;;4986442;28;20233;-81
2020/12/20 03:09:56;;;;;;;9.90;7.80;;;0.50;95.50;;;;;;4991167;28;20764;-84
2020/12/20 03:12:23;;;;;;;10.73;8.40;;;0.40;95.50;;;;;;4986680;28;20213;-83
2020/12/20 03:14:50;;;;;;;10.97;8.57;;;0.40;95.20;;;;;;4988003;28;20592;-86
2020/12/20 03:17:16;;;;;;;10.63;8.20;;;0.50;95.40;;;;;;4989652;28;20210;-81
2020/12/20 03:19:43;;;;;;;11.60;8.23;;;0.60;95.40;;;;;;4991112;28;20247;-83
2020/12/20 03:22:09;;;;;;;10.57;8.73;;;0.60;95.20;;;;;;4989831;28;20308;-82
2020/12/20 03:24:35;;;;;;;10.93;8.33;;;0.50;95.20;;;;;;4993536;28;20291;-82
2020/12/20 03:27:02;;;;;;;11.13;8.00;;;0.50;95.20;;;;;;4993428;28;20288;-84
2020/12/20 03:29:28;;;;;;;11.23;8.20;;;0.60;95.30;;;;;;4991852;28;20234;-81
2020/12/20 03:31:55;;;;;;;11.20;8.63;;;0.60;94.90;;;;;;4991559;28;20215;-84
2020/12/20 03:34:22;;;;;;;14.67;8.47;;;0.50;95.10;;;;;;4991535;28;20235;-83
2020/12/20 03:36:48;;;;;;;10.73;8.63;;;0.50;95.10;;;;;;4989828;28;20210;-83
2020/12/20 03:39:14;;;;;;;10.90;8.67;;;0.40;95.50;;;;;;4987895;28;20236;-83
2020/12/20 03:41:41;;;;;;;9.80;8.03;;;0.40;95.40;;;;;;4994607;28;20208;-83
2020/12/20 03:44:07;;;;;;;11.07;8.67;;;0.40;95.40;;;;;;4986045;28;20230;-82
2020/12/20 03:46:34;;;;;;;11.30;8.17;;;0.50;95.00;;;;;;4988513;28;20197;-81
2020/12/20 03:49:01;;;;;;;13.10;8.97;;;0.60;95.10;;;;;;4991677;28;20228;-84
2020/12/20 03:51:27;;;;;;;11.20;8.53;;;0.50;94.70;;;;;;4986195;28;20295;-84
2020/12/20 03:53:53;;;;;;;15.53;8.90;;;0.40;94.80;;;;;;4992246;28;20774;-81
2020/12/20 03:56:20;;;;;;;10.37;8.30;;;0.30;95.20;;;;;;4992092;28;20233;-86
2020/12/20 03:58:46;;;;;;;12.87;8.73;;;0.30;95.70;;;;;;4991940;28;20228;-83
2020/12/20 04:01:13;;;;;;;12.20;8.73;;;0.30;95.50;;;;;;4989382;28;20568;-89
2020/12/20 04:03:39;;;;;;;10.77;8.20;;;0.30;95.10;;;;;;4988106;28;20264;-83
2020/12/20 04:06:07;;;;;;;10.33;7.80;;;0.40;95.10;;;;;;4986633;28;20288;-84
2020/12/20 04:08:35;;;;;;;10.60;8.27;;;0.50;95.00;;;;;;4990001;28;20703;-81
2020/12/20 04:11:01;;;;;;;10.77;8.00;;;0.60;94.90;;;;;;4988433;28;20203;-83
2020/12/20 04:13:32;;;;;;;9.50;7.50;;;0.50;94.60;;;;;;4989387;28;20346;-83
2020/12/20 04:15:58;;;;;;;9.80;7.83;;;0.50;94.80;;;;;;4990366;28;20208;-81
2020/12/20 04:18:25;;;;;;;11.60;8.50;;;0.60;94.80;;;;;;4991432;28;20232;-84
2020/12/20 04:20:52;;;;;;;10.47;7.90;;;0.60;94.40;;;;;;4993263;28;20204;-84
2020/12/20 04:23:19;;;;;;;11.53;8.77;;;0.50;94.30;;;;;;4988083;28;20281;-83
2020/12/20 04:25:45;;;;;;;10.60;8.13;;;0.40;94.70;;;;;;4998555;28;20208;-83
2020/12/20 04:28:12;;;;;;;9.70;7.73;;;0.30;94.90;;;;;;4986997;28;20708;-84
2020/12/20 04:30:38;;;;;;;12.97;8.83;;;0.20;95.10;;;;;;4984512;28;20211;-83
2020/12/20 04:33:04;;;;;;;15.73;8.23;;;0.20;95.40;;;;;;4989607;28;20220;-84
2020/12/20 04:35:31;;;;;;;10.97;8.50;;;0.10;95.40;;;;;;4987502;28;20258;-81
2020/12/20 04:37:57;;;;;;;14.77;8.40;;;0.10;95.60;;;;;;4989243;28;20723;-82
2020/12/20 04:40:25;;;;;;;11.27;8.80;;;0.00;95.60;;;;;;4988524;28;20197;-87
2020/12/20 04:42:58;;;;;;;14.93;9.23;;;0.00;95.90;;;;;;4995077;28;20212;-81
2020/12/20 04:45:24;;;;;;;12.37;8.43;;;0.00;95.90;;;;;;4993461;28;20201;-82
2020/12/20 04:47:52;;;;;;;11.10;8.63;;;-0.10;96.00;;;;;;4993718;28;20250;-85
2020/12/20 04:50:19;;;;;;;13.97;9.07;;;-0.10;96.10;;;;;;4995505;28;20205;-81
2020/12/20 04:52:47;;;;;;;11.37;9.00;;;-0.10;96.30;;;;;;4991979;28;20216;-82
2020/12/20 04:55:14;;;;;;;10.67;7.77;;;0.00;96.00;;;;;;4994651;28;20260;-81
2020/12/20 04:57:42;;;;;;;10.33;7.90;;;0.10;96.50;;;;;;4996519;28;20790;-82
2020/12/20 05:00:08;;;;;;;10.17;7.83;;;0.10;96.50;;;;;;4995971;28;20235;-81
2020/12/20 05:02:35;;;;;;;9.67;7.93;;;0.20;96.00;;;;;;4994338;28;20299;-81
2020/12/20 05:05:01;;;;;;;10.43;7.87;;;0.20;95.80;;;;;;4989705;28;20683;-87
2020/12/20 05:07:28;;;;;;;10.60;7.97;;;0.10;95.80;;;;;;4997628;28;20208;-85
2020/12/20 05:09:54;;;;;;;11.17;8.87;;;0.10;95.80;;;;;;4990776;28;20223;-83
2020/12/20 05:12:25;;;;;;;11.00;8.10;;;0.20;95.50;;;;;;4994118;28;20301;-81
2020/12/20 05:14:52;;;;;;;10.10;8.07;;;0.30;95.20;;;;;;4990741;28;20235;-85
2020/12/20 05:17:18;;;;;;;12.13;8.93;;;0.30;95.30;;;;;;4992531;28;20283;-83
2020/12/20 05:19:45;;;;;;;12.23;9.00;;;0.30;95.20;;;;;;4989580;28;20228;-83
2020/12/20 05:22:16;;;;;;;12.03;8.93;;;0.30;95.00;;;;;;4997185;28;20206;-84
2020/12/20 05:24:43;;;;;;;12.10;8.13;;;0.20;95.10;;;;;;4997878;28;20232;-83
2020/12/20 05:27:27;;;;;;;13.60;8.73;;;0.10;95.20;;;;;;4996244;28;20200;-82
2020/12/20 05:29:55;;;;;;;13.33;8.10;;;0.20;95.60;;;;;;4997717;28;20229;-82
2020/12/20 05:32:28;;;;;;;10.83;8.37;;;0.20;95.60;;;;;;4998119;28;20208;-85
2020/12/20 05:34:59;;;;;;;10.37;8.27;;;0.20;95.60;;;;;;4998620;28;20342;-87
2020/12/20 05:37:30;;;;;;;12.27;8.57;;;0.30;95.30;;;;;;5000358;28;20236;-83
2020/12/20 05:39:57;;;;;;;11.03;8.00;;;0.30;95.10;;;;;;4995032;28;20291;-83
2020/12/20 05:42:24;;;;;;;10.97;8.43;;;0.20;95.20;;;;;;4994686;28;20211;-81
2020/12/20 05:45:03;;;;;;;10.67;8.50;;;0.20;95.20;;;;;;4990874;28;20224;-88
2020/12/20 05:47:29;;;;;;;11.10;8.37;;;0.10;95.30;;;;;;4987741;28;20212;-88
2020/12/20 05:49:56;;;;;;;9.73;7.80;;;0.10;95.40;;;;;;4990613;28;20308;-81
2020/12/20 05:52:22;;;;;;;9.60;7.90;;;0.10;95.20;;;;;;4993271;28;20299;-82
2020/12/20 05:54:48;;;;;;;10.53;7.80;;;0.10;95.60;;;;;;4994004;28;20234;-81
2020/12/20 05:57:16;;;;;;;13.13;10.00;;;0.10;95.30;;;;;;4993670;28;20211;-81
2020/12/20 05:59:44;;;;;;;11.20;8.73;;;0.20;95.30;;;;;;4978290;28;20268;-81
2020/12/20 06:02:12;;;;;;;10.27;7.87;;;0.30;95.00;;;;;;4982384;28;20202;-80
2020/12/20 06:04:39;;;;;;;10.70;8.10;;;0.30;95.00;;;;;;4995768;28;20225;-84
2020/12/20 06:07:07;;;;;;;11.03;8.50;;;0.40;94.90;;;;;;4996478;28;20273;-86
2020/12/20 06:09:42;;;;;;;10.93;8.43;;;0.40;94.90;;;;;;4993091;28;20227;-87
2020/12/20 06:12:12;;;;;;;10.50;8.40;;;0.40;95.00;;;;;;4991715;28;20203;-83
2020/12/20 06:14:45;;;;;;;9.83;8.23;;;0.50;94.90;;;;;;4987484;28;20574;-83
2020/12/20 06:17:17;;;;;;;9.90;7.80;;;0.50;94.50;;;;;;4992504;28;20210;-81
2020/12/20 06:19:56;;;;;;;12.33;8.43;;;0.40;94.60;;;;;;4989765;28;20782;-86
2020/12/20 06:22:24;;;;;;;10.43;8.10;;;0.20;94.60;;;;;;4989831;28;20227;-86
2020/12/20 06:24:52;;;;;;;9.97;8.13;;;0.20;94.80;;;;;;4988638;28;20322;-84
2020/12/20 06:27:20;;;;;;;9.90;8.17;;;0.20;95.20;;;;;;4994140;28;20204;-82
2020/12/20 06:29:49;;;;;;;16.73;8.87;;;0.20;95.10;;;;;;4990775;28;20238;-84
2020/12/20 06:32:21;;;;;;;13.10;8.90;;;0.20;94.80;;;;;;4992586;28;20204;-83
2020/12/20 06:34:48;;;;;;;13.50;8.27;;;0.10;95.10;;;;;;4992932;28;20658;-81
2020/12/20 06:37:18;;;;;;;12.37;8.40;;;0.20;95.10;;;;;;4993981;28;20204;-86
2020/12/20 06:39:44;;;;;;;10.97;8.70;;;0.20;94.80;;;;;;4989055;28;20224;-83
2020/12/20 06:42:12;;;;;;;12.60;8.80;;;0.10;94.80;;;;;;4994808;28;20276;-83
2020/12/20 06:44:38;;;;;;;16.27;8.30;;;0.10;94.80;;;;;;4989179;28;20636;-85
2020/12/20 06:47:04;;;;;;;10.80;8.23;;;0.10;95.00;;;;;;4996326;28;20212;-86
2020/12/20 06:49:37;;;;;;;10.00;7.33;;;0.10;95.10;;;;;;4994156;28;20232;-86
2020/12/20 06:52:19;;;;;;;10.77;7.47;;;0.10;95.00;;;;;;4993120;28;20214;-88
2020/12/20 06:55:04;;;;;;;12.10;8.60;;;0.00;95.20;;;;;;4984270;28;20220;-83
2020/12/20 06:57:31;;;;;;;10.97;8.17;;;-0.10;95.80;;;;;;4993574;28;20200;-83
2020/12/20 06:59:57;;;;;;;10.50;8.23;;;0.00;95.80;;;;;;4990570;28;20246;-81
2020/12/20 07:02:43;;;;;;;13.17;8.33;;;0.10;95.70;;;;;;4989698;28;20218;-87
2020/12/20 07:05:41;;;;;;;10.27;7.70;;;0.10;95.40;;;;;;4989936;28;20222;-84
2020/12/20 07:08:09;;;;;;;10.70;8.10;;;0.10;95.60;;;;;;4988557;28;20286;-82
2020/12/20 07:10:46;;;;;;;12.87;7.77;;;0.20;95.40;;;;;;4989676;28;20204;-83
2020/12/20 07:13:13;;;;;;;11.77;8.00;;;0.20;95.30;;;;;;4988925;28;20235;-84
2020/12/20 07:15:51;;;;;;;10.33;8.03;;;0.20;95.30;;;;;;4992650;28;20212;-81
2020/12/20 07:18:40;;;;;;;9.63;7.70;;;0.20;95.50;;;;;;4989576;28;20227;-81
2020/12/20 07:21:09;;;;;;;11.10;8.10;;;0.30;95.10;;;;;;4992660;28;20204;-84
2020/12/20 07:23:36;;;;;;;10.47;7.63;;;0.30;94.80;;;;;;4986740;28;20706;-84
2020/12/20 07:26:03;;;;;;;10.10;7.40;;;0.20;94.80;;;;;;4992693;28;20234;-81
2020/12/20 07:28:29;;;;;;;11.23;8.10;;;0.20;94.60;;;;;;4987443;28;20312;-83
2020/12/20 07:30:55;;;;;;;10.03;7.40;;;0.20;95.00;;;;;;4989761;28;20232;-84
2020/12/20 07:33:22;;;;;;;10.07;7.37;;;0.20;95.30;;;;;;4989859;28;20692;-83
2020/12/20 07:35:48;;;;;;;10.50;8.27;;;0.20;94.80;;;;;;4988803;28;20218;-83
2020/12/20 07:38:16;;;;;;;12.27;8.47;;;0.30;94.80;;;;;;4985847;28;20250;-86
2020/12/20 07:40:42;;;;;;;11.27;8.40;;;0.30;94.90;;;;;;4988278;28;20210;-83
2020/12/20 07:43:09;;;;;;;11.30;8.20;;;0.30;95.00;;;;;;4988333;28;20351;-83
2020/12/20 07:45:35;;;;;;;10.27;7.70;;;0.40;94.80;;;;;;4984169;28;20206;-86
2020/12/20 07:48:01;;;;;;;11.57;7.90;;;0.50;94.90;;;;;;4988400;28;20648;-85
2020/12/20 07:50:28;;;;;;;9.80;7.70;;;0.50;94.30;;;;;;4989525;28;20570;-87
2020/12/20 07:52:54;;;;;;;10.57;7.63;;;0.40;94.50;;;;;;4993294;28;20250;-82
2020/12/20 07:55:21;;;;;;;9.07;7.57;;;0.20;94.60;;;;;;4988570;28;20212;-82
2020/12/20 07:57:49;;;;;;;8.50;7.20;;;0.20;94.90;;;;;;4990465;28;20224;-85
2020/12/20 08:00:17;;;;;;;8.63;6.87;;;0.30;94.70;;;;;;4988572;28;20338;-82
2020/12/20 08:02:43;;;;;;;9.43;7.83;;;0.20;94.30;;;;;;4991949;28;20193;-82
2020/12/20 08:05:11;;;;;;;9.73;7.40;;;0.40;94.80;;;;;;4991411;28;20197;-86
2020/12/20 08:07:37;;;;;;;8.93;7.07;;;0.40;94.50;;;;;;4989303;28;20198;-86
2020/12/20 08:10:04;;;;;;;8.07;6.63;;;0.50;94.10;;;;;;4989225;28;20232;-82
2020/12/20 08:12:32;;;;;;;9.07;6.67;;;0.60;94.10;;;;;;4987103;28;20207;-81
2020/12/20 08:15:06;;;;;;;9.53;7.27;;;0.70;94.20;;;;;;4991929;28;20217;-84
2020/12/20 08:17:33;;;;;;;9.87;7.03;;;0.80;94.00;;;;;;4990484;28;20676;-83
2020/12/20 08:20:02;;;;;;;8.73;7.20;;;0.90;93.80;;;;;;4992867;28;20257;-86
2020/12/20 08:22:31;;;;;;;9.40;7.37;;;1.00;93.40;;;;;;4996701;28;20237;-83
2020/12/20 08:24:59;;;;;;;7.77;6.67;;;0.90;93.20;;;;;;4989573;28;20242;-82
2020/12/20 08:27:28;;;;;;;9.17;7.30;;;1.00;93.10;;;;;;4985857;28;20319;-81
2020/12/20 08:29:57;;;;;;;10.67;8.17;;;1.00;93.10;;;;;;4983785;28;20226;-82
2020/12/20 08:32:26;;;;;;;7.47;6.63;;;1.00;92.80;;;;;;4996423;28;20203;-82
2020/12/20 08:34:52;;;;;;;8.97;6.93;;;1.10;92.70;;;;;;4992340;28;20256;-83
2020/12/20 08:37:21;;;;;;;9.13;6.90;;;1.30;92.40;;;;;;4990198;28;20215;-88
2020/12/20 08:39:47;;;;;;;8.40;6.97;;;1.20;92.20;;;;;;4980461;28;20596;-86
2020/12/20 08:42:15;;;;;;;8.80;6.83;;;1.20;92.30;;;;;;4996501;28;20214;-82
2020/12/20 08:44:49;;;;;;;8.60;7.13;;;1.20;92.70;;;;;;4991506;28;20192;-84
2020/12/20 08:47:18;;;;;;;9.20;7.40;;;1.30;92.30;;;;;;4985589;28;20217;-88
2020/12/20 08:49:55;;;;;;;12.87;7.80;;;1.10;92.40;;;;;;4975520;28;20230;-82
2020/12/20 08:52:21;;;;;;;8.40;6.57;;;1.00;92.70;;;;;;4994851;28;20282;-82
2020/12/20 08:54:49;;;;;;;8.43;7.00;;;0.90;92.80;;;;;;4994149;28;20301;-89
2020/12/20 08:57:15;;;;;;;9.53;6.53;;;1.00;93.00;;;;;;4979736;28;20582;-79
2020/12/20 08:59:43;;;;;;;9.37;7.47;;;1.20;92.70;;;;;;4979782;28;20661;-82
2020/12/20 09:02:19;;;;;;;8.97;7.20;;;1.30;92.50;;;;;;4982923;28;20207;-82
2020/12/20 09:04:56;;;;;;;9.03;7.27;;;1.30;92.40;;;;;;4983546;28;20596;-84
2020/12/20 09:07:31;;;;;;;8.57;6.60;;;1.40;92.10;;;;;;4991496;28;20302;-81
2020/12/20 09:13:05;;;;;;;9.63;7.27;;;1.40;92.10;;;;;;4975244;28;20215;-82
2020/12/20 09:43:22;;;;;;;10.03;7.73;;;1.50;92.00;;;;;;4996355;28;20224;-84
2020/12/20 09:45:50;;;;;;;10.00;7.53;;;1.60;92.30;;;;;;4993112;28;20219;-85
2020/12/20 09:48:16;;;;;;;10.87;7.13;;;1.60;92.00;;;;;;4989257;28;20313;-80
2020/12/20 09:50:52;;;;;;;8.80;7.00;;;1.60;92.20;;;;;;4998412;28;20271;-83
2020/12/20 09:53:20;;;;;;;8.33;6.90;;;1.60;91.50;;;;;;4985210;28;20603;-85
2020/12/20 09:55:46;;;;;;;9.37;7.27;;;1.60;91.70;;;;;;4984800;28;20218;-82
2020/12/20 09:58:14;;;;;;;10.20;7.00;;;1.70;91.90;;;;;;5000442;28;20314;-83
2020/12/20 10:05:55;;;;;;;9.93;7.93;;;1.50;92.10;;;;;;6116108;23;20168;-82
2020/12/20 10:08:22;;;;;;;8.93;7.23;;;1.60;92.70;;;;;;5031208;28;20236;-82
2020/12/20 10:10:52;;;;;;;8.53;6.57;;;1.70;92.50;;;;;;5023664;28;20187;-82
2020/12/20 10:13:22;;;;;;;10.13;7.63;;;2.10;92.10;;;;;;5029715;28;20289;-82
2020/12/20 10:23:16;;;;;;;10.83;7.60;;;2.70;87.50;;;;;;5023461;28;20274;-81
2020/12/20 10:28:57;;;;;;;11.20;7.43;;;2.70;90.00;;;;;;5040015;28;20572;-83
2020/12/20 10:31:24;;;;;;;9.57;7.30;;;2.50;89.70;;;;;;5037095;28;20203;-84
2020/12/20 10:33:50;;;;;;;11.17;8.07;;;2.40;90.30;;;;;;5027568;28;20310;-81
2020/12/20 10:36:17;;;;;;;8.60;6.90;;;2.30;90.70;;;;;;5030928;28;20194;-87
2020/12/20 10:38:44;;;;;;;8.30;6.83;;;2.00;91.10;;;;;;5027493;28;20238;-87
2020/12/20 10:41:11;;;;;;;10.03;7.57;;;2.20;91.10;;;;;;5038374;28;20254;-88
2020/12/20 10:43:39;;;;;;;9.20;7.63;;;2.40;90.40;;;;;;5043250;28;20305;-84
2020/12/20 10:46:07;;;;;;;8.97;7.23;;;2.10;91.20;;;;;;5030499;28;20277;-85
2020/12/20 10:48:33;;;;;;;11.53;8.37;;;2.30;90.70;;;;;;5023815;28;20632;-85
2020/12/20 10:50:59;;;;;;;9.77;7.37;;;2.30;90.70;;;;;;5026571;28;20214;-86
2020/12/20 10:53:26;;;;;;;24.57;9.97;;;2.20;91.00;;;;;;5013579;28;20236;-87
2020/12/20 10:55:53;;;;;;;16.40;9.33;;;2.20;91.20;;;;;;5021842;28;20564;-86
2020/12/20 10:58:20;;;;;;;15.93;9.00;;;2.20;91.50;;;;;;5022190;28;20896;-83
2020/12/20 11:00:47;;;;;;;10.63;8.20;;;2.10;91.60;;;;;;5031008;28;20638;-84
2020/12/20 11:03:13;;;;;;;10.10;7.67;;;2.20;91.40;;;;;;5028018;28;20747;-87
2020/12/20 11:05:40;;;;;;;10.10;7.57;;;2.30;91.00;;;;;;5028889;28;20287;-85
2020/12/20 11:08:06;;;;;;;12.60;9.30;;;2.40;90.90;;;;;;5026859;28;20287;-85
2020/12/20 11:10:33;;;;;;;10.13;8.17;;;2.40;91.30;;;;;;5028435;28;20195;-85
2020/12/20 11:13:02;;;;;;;9.37;7.70;;;2.40;91.30;;;;;;5033694;28;20198;-84
2020/12/20 11:15:28;;;;;;;14.33;7.80;;;2.50;90.90;;;;;;5022549;28;20199;-84
2020/12/20 11:17:54;;;;;;;10.63;8.50;;;2.70;90.50;;;;;;5027973;28;21714;-83
2020/12/20 11:20:21;;;;;;;8.93;7.47;;;2.60;90.60;;;;;;5025209;28;20228;-83
2020/12/20 11:22:48;;;;;;;10.80;8.40;;;2.60;90.20;;;;;;5032877;28;20218;-83
2020/12/20 11:25:15;;;;;;;12.60;8.83;;;2.60;90.70;;;;;;5040744;28;20248;-86
2020/12/20 11:27:41;;;;;;;9.33;7.90;;;2.70;90.60;;;;;;5039048;28;20250;-85
2020/12/20 11:30:09;;;;;;;9.43;7.87;;;2.60;90.20;;;;;;5028747;28;20276;-83
2020/12/20 11:32:36;;;;;;;9.77;7.33;;;2.50;90.50;;;;;;5028484;28;20725;-87
2020/12/20 11:35:04;;;;;;;8.70;7.20;;;2.70;90.80;;;;;;5025794;28;20222;-84
2020/12/20 11:37:31;;;;;;;33.83;16.43;;;2.80;90.30;;;;;;5030373;28;20205;-86
2020/12/20 11:39:57;;;;;;;11.07;8.30;;;2.70;90.90;;;;;;5030685;28;20221;-85
2020/12/20 11:42:24;;;;;;;10.20;8.03;;;2.90;90.40;;;;;;5027364;28;20194;-85
2020/12/20 11:44:50;;;;;;;19.23;11.30;;;2.90;90.40;;;;;;5039659;28;20689;-83
2020/12/20 11:47:18;;;;;;;11.83;8.43;;;2.60;90.90;;;;;;5018068;28;20199;-83
2020/12/20 11:49:45;;;;;;;11.07;8.93;;;2.70;90.60;;;;;;5020302;28;20218;-83
2020/12/20 11:52:12;;;;;;;11.23;8.80;;;2.60;90.50;;;;;;5023012;28;20197;-81
2020/12/20 11:54:38;;;;;;;10.73;8.50;;;2.50;90.90;;;;;;5028608;28;20226;-85
2020/12/20 11:57:05;;;;;;;9.93;8.10;;;2.50;91.00;;;;;;5021714;28;20207;-87
2020/12/20 11:59:32;;;;;;;10.33;8.53;;;2.60;91.00;;;;;;5017905;28;21766;-87
2020/12/20 12:02:00;;;;;;;10.23;8.57;;;2.60;90.80;;;;;;5025786;28;20314;-87
2020/12/20 12:04:28;;;;;;;10.50;8.30;;;2.60;90.80;;;;;;5026968;28;20559;-87
2020/12/20 12:06:54;;;;;;;11.33;9.50;;;2.50;91.00;;;;;;5021132;28;20214;-84
2020/12/20 12:09:21;;;;;;;11.13;9.30;;;2.50;91.20;;;;;;5032473;28;20268;-81
2020/12/20 12:11:51;;;;;;;11.80;8.83;;;2.70;91.10;;;;;;5025240;28;20198;-83
2020/12/20 12:14:17;;;;;;;11.30;9.30;;;2.70;90.80;;;;;;5017145;28;20936;-80
2020/12/20 12:16:44;;;;;;;16.70;11.10;;;2.40;91.20;;;;;;5015935;28;20286;-87
2020/12/20 12:19:10;;;;;;;11.80;8.90;;;2.40;91.00;;;;;;5021123;28;20317;-84
2020/12/20 12:21:37;;;;;;;10.80;8.53;;;2.40;90.90;;;;;;5020510;28;20281;-84
2020/12/20 12:24:03;;;;;;;10.93;8.10;;;2.60;90.70;;;;;;5017346;28;20422;-85
2020/12/20 12:26:30;;;;;;;10.77;8.63;;;2.60;90.80;;;;;;5028976;28;20636;-82
2020/12/20 12:28:56;;;;;;;10.30;8.57;;;2.70;90.90;;;;;;5028570;28;20225;-88
2020/12/20 12:31:22;;;;;;;10.83;8.30;;;2.50;91.00;;;;;;5026840;28;20207;-83
2020/12/20 12:33:49;;;;;;;9.83;7.83;;;2.50;91.00;;;;;;5028138;28;20320;-85
2020/12/20 12:36:15;;;;;;;9.53;7.90;;;2.30;91.20;;;;;;5031211;28;20201;-80
2020/12/20 12:38:42;;;;;;;10.80;8.37;;;2.40;91.30;;;;;;5026226;28;20226;-86
2020/12/20 12:41:08;;;;;;;11.13;9.03;;;2.60;90.90;;;;;;5020553;28;20199;-85
2020/12/20 12:43:35;;;;;;;10.50;8.43;;;2.60;91.30;;;;;;5022971;28;20240;-84
2020/12/20 12:46:01;;;;;;;11.53;8.90;;;2.80;91.10;;;;;;5023237;28;20191;-80
2020/12/20 12:48:27;;;;;;;13.53;8.40;;;2.70;90.90;;;;;;5018589;28;20234;-80
2020/12/20 12:50:54;;;;;;;10.67;8.40;;;2.70;91.10;;;;;;5031122;28;20285;-79
2020/12/20 12:53:20;;;;;;;9.93;8.00;;;2.80;91.20;;;;;;5024406;28;20665;-81
2020/12/20 12:55:48;;;;;;;11.13;8.37;;;2.80;91.30;;;;;;5024588;28;20193;-88
2020/12/20 12:58:14;;;;;;;12.17;8.17;;;2.80;91.10;;;;;;5025805;28;20291;-89
2020/12/20 13:00:40;;;;;;;10.23;8.40;;;2.80;91.20;;;;;;5044284;28;20864;-83
2020/12/20 13:03:10;;;;;;;9.03;7.90;;;2.70;91.40;;;;;;5036740;28;20241;-85
2020/12/20 13:05:36;;;;;;;10.60;8.33;;;2.80;91.40;;;;;;5032189;28;20195;-82
2020/12/20 13:08:03;;;;;;;10.83;8.87;;;2.60;91.30;;;;;;5028768;28;20226;-86
2020/12/20 13:10:29;;;;;;;10.97;8.53;;;2.40;91.80;;;;;;5037896;28;20203;-88
2020/12/20 13:12:56;;;;;;;10.60;8.73;;;2.40;92.20;;;;;;5026050;28;20287;-83
2020/12/20 13:15:23;;;;;;;11.90;8.70;;;2.50;92.20;;;;;;5030059;28;20195;-85
2020/12/20 13:17:49;;;;;;;9.57;8.20;;;2.50;91.90;;;;;;5025670;28;20213;-83
2020/12/20 13:20:15;;;;;;;10.33;8.47;;;2.40;91.80;;;;;;5024427;28;20266;-85
2020/12/20 13:22:42;;;;;;;12.73;9.53;;;2.60;91.90;;;;;;5031187;28;20203;-80
2020/12/20 13:25:08;;;;;;;10.23;7.97;;;2.80;91.80;;;;;;5017318;28;20345;-85
2020/12/20 13:27:34;;;;;;;10.73;9.03;;;2.80;91.50;;;;;;5027637;28;20337;-85
2020/12/20 13:30:02;;;;;;;11.20;8.50;;;2.70;91.70;;;;;;5022648;28;20283;-83
2020/12/20 13:32:29;;;;;;;11.43;8.47;;;2.70;91.60;;;;;;5026721;28;20447;-81
2020/12/20 13:34:55;;;;;;;10.70;8.77;;;2.60;91.90;;;;;;5033559;28;20359;-82
2020/12/20 13:37:21;;;;;;;11.07;8.90;;;2.50;91.80;;;;;;5032112;28;20612;-81
2020/12/20 13:39:48;;;;;;;11.03;9.00;;;2.50;92.30;;;;;;5018545;28;20329;-83